sensor_id;sensor_type;location;lat;lon;timestamp;P1;durP1;ratioP1;P2;durP2;ratioP2
76357;SDS011;65185;21.060;105.826;2023-05-14T00:00:19;25.30;;;15.15;;
76357;SDS011;65185;21.060;105.826;2023-05-14T00:02:46;24.42;;;15.57;;
76357;SDS011;65185;21.060;105.826;2023-05-14T00:05:12;24.23;;;15.40;;
76357;SDS011;65185;21.060;105.826;2023-05-14T00:07:39;24.60;;;15.40;;
76357;SDS011;65185;21.060;105.826;2023-05-14T00:10:05;22.67;;;14.70;;
76357;SDS011;65185;21.060;105.826;2023-05-14T00:12:32;23.75;;;15.65;;
76357;SDS011;65185;21.060;105.826;2023-05-14T00:14:59;19.52;;;13.32;;
76357;SDS011;65185;21.060;105.826;2023-05-14T00:17:25;20.30;;;13.18;;
76357;SDS011;65185;21.060;105.826;2023-05-14T00:19:52;21.20;;;14.18;;
76357;SDS011;65185;21.060;105.826;2023-05-14T00:22:18;19.60;;;12.40;;
76357;SDS011;65185;21.060;105.826;2023-05-14T00:24:44;19.05;;;12.93;;
76357;SDS011;65185;21.060;105.826;2023-05-14T00:27:11;22.88;;;14.48;;
76357;SDS011;65185;21.060;105.826;2023-05-14T00:29:38;20.10;;;12.70;;
76357;SDS011;65185;21.060;105.826;2023-05-14T00:32:04;22.70;;;14.05;;
76357;SDS011;65185;21.060;105.826;2023-05-14T00:34:31;21.30;;;14.43;;
76357;SDS011;65185;21.060;105.826;2023-05-14T00:36:57;23.83;;;14.40;;
76357;SDS011;65185;21.060;105.826;2023-05-14T00:39:24;25.13;;;14.02;;
76357;SDS011;65185;21.060;105.826;2023-05-14T00:41:50;23.23;;;13.90;;
76357;SDS011;65185;21.060;105.826;2023-05-14T00:44:17;25.50;;;16.17;;
76357;SDS011;65185;21.060;105.826;2023-05-14T00:46:43;24.42;;;16.15;;
76357;SDS011;65185;21.060;105.826;2023-05-14T00:49:10;25.92;;;16.27;;
76357;SDS011;65185;21.060;105.826;2023-05-14T00:51:36;24.50;;;15.82;;
76357;SDS011;65185;21.060;105.826;2023-05-14T00:54:05;25.50;;;15.93;;
76357;SDS011;65185;21.060;105.826;2023-05-14T00:56:33;28.77;;;17.35;;
76357;SDS011;65185;21.060;105.826;2023-05-14T00:59:00;26.92;;;16.55;;
76357;SDS011;65185;21.060;105.826;2023-05-14T01:01:26;30.25;;;18.40;;
76357;SDS011;65185;21.060;105.826;2023-05-14T01:03:53;29.05;;;18.77;;
76357;SDS011;65185;21.060;105.826;2023-05-14T01:06:32;27.35;;;17.08;;
76357;SDS011;65185;21.060;105.826;2023-05-14T01:17:25;30.38;;;19.00;;
76357;SDS011;65185;21.060;105.826;2023-05-14T01:19:57;34.95;;;21.52;;
76357;SDS011;65185;21.060;105.826;2023-05-14T01:22:24;29.23;;;19.27;;
76357;SDS011;65185;21.060;105.826;2023-05-14T01:24:51;37.08;;;23.13;;
76357;SDS011;65185;21.060;105.826;2023-05-14T01:30:18;33.55;;;20.58;;
76357;SDS011;65185;21.060;105.826;2023-05-14T01:32:47;36.15;;;22.15;;
76357;SDS011;65185;21.060;105.826;2023-05-14T01:35:16;34.35;;;19.00;;
76357;SDS011;65185;21.060;105.826;2023-05-14T01:37:43;31.10;;;20.85;;
76357;SDS011;65185;21.060;105.826;2023-05-14T01:40:12;39.08;;;23.75;;
76357;SDS011;65185;21.060;105.826;2023-05-14T01:42:38;34.38;;;21.20;;
76357;SDS011;65185;21.060;105.826;2023-05-14T01:45:06;34.67;;;23.05;;
76357;SDS011;65185;21.060;105.826;2023-05-14T01:47:33;37.30;;;23.65;;
76357;SDS011;65185;21.060;105.826;2023-05-14T01:49:59;39.58;;;26.60;;
76357;SDS011;65185;21.060;105.826;2023-05-14T01:52:26;38.17;;;25.48;;
76357;SDS011;65185;21.060;105.826;2023-05-14T01:54:52;35.53;;;23.23;;
76357;SDS011;65185;21.060;105.826;2023-05-14T01:57:19;28.98;;;19.50;;
76357;SDS011;65185;21.060;105.826;2023-05-14T01:59:45;31.38;;;20.85;;
76357;SDS011;65185;21.060;105.826;2023-05-14T02:02:12;30.23;;;20.35;;
76357;SDS011;65185;21.060;105.826;2023-05-14T02:04:38;30.38;;;18.13;;
76357;SDS011;65185;21.060;105.826;2023-05-14T02:07:05;30.98;;;20.08;;
76357;SDS011;65185;21.060;105.826;2023-05-14T02:09:31;32.00;;;20.50;;
76357;SDS011;65185;21.060;105.826;2023-05-14T02:11:58;30.90;;;19.50;;
76357;SDS011;65185;21.060;105.826;2023-05-14T02:14:24;31.85;;;21.98;;
76357;SDS011;65185;21.060;105.826;2023-05-14T02:16:50;32.95;;;21.85;;
76357;SDS011;65185;21.060;105.826;2023-05-14T02:19:17;34.17;;;23.23;;
76357;SDS011;65185;21.060;105.826;2023-05-14T02:21:43;33.45;;;22.40;;
76357;SDS011;65185;21.060;105.826;2023-05-14T02:24:10;33.67;;;23.17;;
76357;SDS011;65185;21.060;105.826;2023-05-14T02:26:36;43.90;;;28.77;;
76357;SDS011;65185;21.060;105.826;2023-05-14T02:29:03;37.63;;;24.60;;
76357;SDS011;65185;21.060;105.826;2023-05-14T02:31:29;34.45;;;23.90;;
76357;SDS011;65185;21.060;105.826;2023-05-14T02:33:56;37.20;;;24.33;;
76357;SDS011;65185;21.060;105.826;2023-05-14T02:36:22;35.92;;;24.52;;
76357;SDS011;65185;21.060;105.826;2023-05-14T02:38:49;36.25;;;23.02;;
76357;SDS011;65185;21.060;105.826;2023-05-14T02:41:15;31.42;;;21.88;;
76357;SDS011;65185;21.060;105.826;2023-05-14T02:43:42;29.08;;;20.83;;
76357;SDS011;65185;21.060;105.826;2023-05-14T02:46:08;30.88;;;20.20;;
76357;SDS011;65185;21.060;105.826;2023-05-14T02:48:35;30.75;;;20.75;;
76357;SDS011;65185;21.060;105.826;2023-05-14T02:51:01;25.08;;;17.13;;
76357;SDS011;65185;21.060;105.826;2023-05-14T02:53:28;26.70;;;17.80;;
76357;SDS011;65185;21.060;105.826;2023-05-14T02:55:54;32.83;;;20.70;;
76357;SDS011;65185;21.060;105.826;2023-05-14T02:58:20;27.23;;;20.48;;
76357;SDS011;65185;21.060;105.826;2023-05-14T03:00:47;27.95;;;19.08;;
76357;SDS011;65185;21.060;105.826;2023-05-14T03:03:13;34.03;;;22.35;;
76357;SDS011;65185;21.060;105.826;2023-05-14T03:05:40;26.92;;;19.27;;
76357;SDS011;65185;21.060;105.826;2023-05-14T03:08:06;29.85;;;19.30;;
76357;SDS011;65185;21.060;105.826;2023-05-14T03:10:33;27.13;;;18.95;;
76357;SDS011;65185;21.060;105.826;2023-05-14T03:12:59;25.25;;;17.77;;
76357;SDS011;65185;21.060;105.826;2023-05-14T03:15:25;25.10;;;17.45;;
76357;SDS011;65185;21.060;105.826;2023-05-14T03:17:52;19.95;;;14.18;;
76357;SDS011;65185;21.060;105.826;2023-05-14T03:20:18;21.88;;;14.57;;
76357;SDS011;65185;21.060;105.826;2023-05-14T03:22:45;21.05;;;14.85;;
76357;SDS011;65185;21.060;105.826;2023-05-14T03:25:11;22.33;;;15.02;;
76357;SDS011;65185;21.060;105.826;2023-05-14T03:27:38;22.13;;;15.45;;
76357;SDS011;65185;21.060;105.826;2023-05-14T03:30:05;22.48;;;16.20;;
76357;SDS011;65185;21.060;105.826;2023-05-14T03:32:32;23.60;;;15.38;;
76357;SDS011;65185;21.060;105.826;2023-05-14T03:34:58;23.65;;;15.32;;
76357;SDS011;65185;21.060;105.826;2023-05-14T03:37:25;25.40;;;16.23;;
76357;SDS011;65185;21.060;105.826;2023-05-14T03:39:51;20.40;;;14.05;;
76357;SDS011;65185;21.060;105.826;2023-05-14T03:42:17;22.30;;;15.45;;
76357;SDS011;65185;21.060;105.826;2023-05-14T03:44:44;21.90;;;14.93;;
76357;SDS011;65185;21.060;105.826;2023-05-14T03:47:10;19.85;;;14.20;;
76357;SDS011;65185;21.060;105.826;2023-05-14T03:49:37;21.42;;;16.38;;
76357;SDS011;65185;21.060;105.826;2023-05-14T03:52:04;22.40;;;16.55;;
76357;SDS011;65185;21.060;105.826;2023-05-14T03:54:30;20.98;;;15.40;;
76357;SDS011;65185;21.060;105.826;2023-05-14T03:56:57;21.38;;;15.57;;
76357;SDS011;65185;21.060;105.826;2023-05-14T03:59:23;21.73;;;15.70;;
76357;SDS011;65185;21.060;105.826;2023-05-14T04:01:50;19.73;;;15.07;;
76357;SDS011;65185;21.060;105.826;2023-05-14T04:04:16;18.92;;;14.20;;
76357;SDS011;65185;21.060;105.826;2023-05-14T04:06:42;23.38;;;16.30;;
76357;SDS011;65185;21.060;105.826;2023-05-14T04:09:09;25.50;;;17.17;;
76357;SDS011;65185;21.060;105.826;2023-05-14T04:11:36;23.27;;;17.00;;
76357;SDS011;65185;21.060;105.826;2023-05-14T04:14:02;20.63;;;14.90;;
76357;SDS011;65185;21.060;105.826;2023-05-14T04:16:29;20.73;;;14.93;;
76357;SDS011;65185;21.060;105.826;2023-05-14T04:18:55;20.85;;;16.10;;
76357;SDS011;65185;21.060;105.826;2023-05-14T04:21:22;21.40;;;15.48;;
76357;SDS011;65185;21.060;105.826;2023-05-14T04:23:48;20.35;;;15.98;;
76357;SDS011;65185;21.060;105.826;2023-05-14T04:26:15;20.80;;;16.20;;
76357;SDS011;65185;21.060;105.826;2023-05-14T04:28:42;22.23;;;17.38;;
76357;SDS011;65185;21.060;105.826;2023-05-14T04:31:09;22.33;;;17.92;;
76357;SDS011;65185;21.060;105.826;2023-05-14T04:33:35;23.02;;;17.73;;
76357;SDS011;65185;21.060;105.826;2023-05-14T04:36:02;28.27;;;19.95;;
76357;SDS011;65185;21.060;105.826;2023-05-14T04:38:30;28.88;;;20.35;;
76357;SDS011;65185;21.060;105.826;2023-05-14T04:40:56;26.85;;;19.55;;
76357;SDS011;65185;21.060;105.826;2023-05-14T04:43:23;28.70;;;21.73;;
76357;SDS011;65185;21.060;105.826;2023-05-14T04:45:49;27.30;;;19.98;;
76357;SDS011;65185;21.060;105.826;2023-05-14T04:48:16;29.08;;;22.55;;
76357;SDS011;65185;21.060;105.826;2023-05-14T04:50:43;27.00;;;21.13;;
76357;SDS011;65185;21.060;105.826;2023-05-14T04:53:09;26.77;;;20.50;;
76357;SDS011;65185;21.060;105.826;2023-05-14T04:55:36;25.42;;;19.90;;
76357;SDS011;65185;21.060;105.826;2023-05-14T04:58:02;25.02;;;18.88;;
76357;SDS011;65185;21.060;105.826;2023-05-14T05:00:29;27.67;;;21.50;;
76357;SDS011;65185;21.060;105.826;2023-05-14T05:02:57;25.90;;;20.63;;
76357;SDS011;65185;21.060;105.826;2023-05-14T05:05:24;27.90;;;20.48;;
76357;SDS011;65185;21.060;105.826;2023-05-14T05:07:50;27.35;;;20.75;;
76357;SDS011;65185;21.060;105.826;2023-05-14T05:10:16;29.20;;;22.33;;
76357;SDS011;65185;21.060;105.826;2023-05-14T05:12:43;29.05;;;21.67;;
76357;SDS011;65185;21.060;105.826;2023-05-14T05:15:09;29.27;;;21.70;;
76357;SDS011;65185;21.060;105.826;2023-05-14T05:17:36;25.38;;;19.33;;
76357;SDS011;65185;21.060;105.826;2023-05-14T05:20:03;27.80;;;19.60;;
76357;SDS011;65185;21.060;105.826;2023-05-14T05:22:33;23.63;;;17.58;;
76357;SDS011;65185;21.060;105.826;2023-05-14T05:24:59;22.60;;;17.27;;
76357;SDS011;65185;21.060;105.826;2023-05-14T05:27:26;27.50;;;20.30;;
76357;SDS011;65185;21.060;105.826;2023-05-14T05:29:52;27.70;;;20.92;;
76357;SDS011;65185;21.060;105.826;2023-05-14T05:32:32;29.05;;;22.33;;
76357;SDS011;65185;21.060;105.826;2023-05-14T05:35:01;27.92;;;20.17;;
76357;SDS011;65185;21.060;105.826;2023-05-14T05:37:28;26.77;;;19.55;;
76357;SDS011;65185;21.060;105.826;2023-05-14T05:39:55;26.17;;;18.98;;
76357;SDS011;65185;21.060;105.826;2023-05-14T05:42:21;24.92;;;18.35;;
76357;SDS011;65185;21.060;105.826;2023-05-14T05:44:48;28.30;;;20.75;;
76357;SDS011;65185;21.060;105.826;2023-05-14T05:47:14;21.77;;;17.27;;
76357;SDS011;65185;21.060;105.826;2023-05-14T05:49:41;20.45;;;15.55;;
76357;SDS011;65185;21.060;105.826;2023-05-14T05:52:07;23.85;;;17.25;;
76357;SDS011;65185;21.060;105.826;2023-05-14T05:54:34;22.70;;;16.42;;
76357;SDS011;65185;21.060;105.826;2023-05-14T05:57:01;21.50;;;16.48;;
76357;SDS011;65185;21.060;105.826;2023-05-14T05:59:27;23.40;;;17.48;;
76357;SDS011;65185;21.060;105.826;2023-05-14T06:01:54;26.25;;;18.52;;
76357;SDS011;65185;21.060;105.826;2023-05-14T06:04:20;23.13;;;17.45;;
76357;SDS011;65185;21.060;105.826;2023-05-14T06:06:46;26.35;;;17.00;;
76357;SDS011;65185;21.060;105.826;2023-05-14T06:09:13;25.30;;;17.77;;
76357;SDS011;65185;21.060;105.826;2023-05-14T06:11:40;24.35;;;18.45;;
76357;SDS011;65185;21.060;105.826;2023-05-14T06:14:06;22.50;;;17.08;;
76357;SDS011;65185;21.060;105.826;2023-05-14T06:16:33;25.88;;;18.27;;
76357;SDS011;65185;21.060;105.826;2023-05-14T06:18:59;22.90;;;16.42;;
76357;SDS011;65185;21.060;105.826;2023-05-14T06:21:26;22.85;;;15.73;;
76357;SDS011;65185;21.060;105.826;2023-05-14T06:23:52;19.20;;;13.57;;
76357;SDS011;65185;21.060;105.826;2023-05-14T06:26:19;19.27;;;14.13;;
76357;SDS011;65185;21.060;105.826;2023-05-14T06:28:46;20.05;;;14.30;;
76357;SDS011;65185;21.060;105.826;2023-05-14T06:31:12;23.15;;;16.67;;
76357;SDS011;65185;21.060;105.826;2023-05-14T06:33:39;21.00;;;14.07;;
76357;SDS011;65185;21.060;105.826;2023-05-14T06:36:05;22.83;;;15.35;;
76357;SDS011;65185;21.060;105.826;2023-05-14T06:38:32;19.63;;;12.80;;
76357;SDS011;65185;21.060;105.826;2023-05-14T06:40:59;17.80;;;12.05;;
76357;SDS011;65185;21.060;105.826;2023-05-14T06:43:25;20.92;;;13.82;;
76357;SDS011;65185;21.060;105.826;2023-05-14T06:45:52;17.55;;;12.57;;
76357;SDS011;65185;21.060;105.826;2023-05-14T06:48:19;20.50;;;14.07;;
76357;SDS011;65185;21.060;105.826;2023-05-14T06:50:46;18.55;;;13.93;;
76357;SDS011;65185;21.060;105.826;2023-05-14T06:53:13;20.48;;;13.32;;
76357;SDS011;65185;21.060;105.826;2023-05-14T06:55:40;18.45;;;13.15;;
76357;SDS011;65185;21.060;105.826;2023-05-14T06:58:07;17.52;;;13.05;;
76357;SDS011;65185;21.060;105.826;2023-05-14T07:00:34;20.75;;;14.27;;
76357;SDS011;65185;21.060;105.826;2023-05-14T07:03:00;19.25;;;14.10;;
76357;SDS011;65185;21.060;105.826;2023-05-14T07:05:26;18.52;;;13.50;;
76357;SDS011;65185;21.060;105.826;2023-05-14T07:07:53;16.98;;;12.57;;
76357;SDS011;65185;21.060;105.826;2023-05-14T07:10:19;18.00;;;13.80;;
76357;SDS011;65185;21.060;105.826;2023-05-14T07:12:46;18.73;;;14.15;;
76357;SDS011;65185;21.060;105.826;2023-05-14T07:15:13;22.35;;;16.23;;
76357;SDS011;65185;21.060;105.826;2023-05-14T07:17:40;20.88;;;14.88;;
76357;SDS011;65185;21.060;105.826;2023-05-14T07:20:06;19.77;;;14.35;;
76357;SDS011;65185;21.060;105.826;2023-05-14T07:22:39;20.80;;;16.30;;
76357;SDS011;65185;21.060;105.826;2023-05-14T07:25:05;22.40;;;16.20;;
76357;SDS011;65185;21.060;105.826;2023-05-14T07:27:32;19.33;;;14.68;;
76357;SDS011;65185;21.060;105.826;2023-05-14T07:29:58;18.67;;;13.90;;
76357;SDS011;65185;21.060;105.826;2023-05-14T07:32:25;19.60;;;13.07;;
76357;SDS011;65185;21.060;105.826;2023-05-14T07:34:51;21.23;;;15.30;;
76357;SDS011;65185;21.060;105.826;2023-05-14T07:37:18;21.80;;;15.75;;
76357;SDS011;65185;21.060;105.826;2023-05-14T07:39:47;24.58;;;16.05;;
76357;SDS011;65185;21.060;105.826;2023-05-14T07:42:13;20.98;;;14.75;;
76357;SDS011;65185;21.060;105.826;2023-05-14T07:44:39;21.13;;;16.15;;
76357;SDS011;65185;21.060;105.826;2023-05-14T07:47:06;23.38;;;17.23;;
76357;SDS011;65185;21.060;105.826;2023-05-14T07:49:33;27.70;;;19.50;;
76357;SDS011;65185;21.060;105.826;2023-05-14T07:51:59;22.95;;;17.13;;
76357;SDS011;65185;21.060;105.826;2023-05-14T07:54:26;24.83;;;18.92;;
76357;SDS011;65185;21.060;105.826;2023-05-14T07:56:52;25.17;;;18.05;;
76357;SDS011;65185;21.060;105.826;2023-05-14T07:59:19;24.75;;;18.90;;
76357;SDS011;65185;21.060;105.826;2023-05-14T08:01:45;22.25;;;16.92;;
76357;SDS011;65185;21.060;105.826;2023-05-14T08:04:12;26.20;;;18.85;;
76357;SDS011;65185;21.060;105.826;2023-05-14T08:06:40;24.58;;;18.38;;
76357;SDS011;65185;21.060;105.826;2023-05-14T08:09:07;25.45;;;18.13;;
76357;SDS011;65185;21.060;105.826;2023-05-14T08:11:40;24.27;;;15.75;;
76357;SDS011;65185;21.060;105.826;2023-05-14T08:14:10;21.40;;;15.55;;
76357;SDS011;65185;21.060;105.826;2023-05-14T08:16:37;23.08;;;16.02;;
76357;SDS011;65185;21.060;105.826;2023-05-14T08:19:03;24.65;;;16.35;;
76357;SDS011;65185;21.060;105.826;2023-05-14T08:21:30;21.80;;;15.07;;
76357;SDS011;65185;21.060;105.826;2023-05-14T08:23:57;19.00;;;14.43;;
76357;SDS011;65185;21.060;105.826;2023-05-14T08:26:23;19.08;;;14.52;;
76357;SDS011;65185;21.060;105.826;2023-05-14T08:28:50;19.05;;;13.85;;
76357;SDS011;65185;21.060;105.826;2023-05-14T08:31:17;23.23;;;15.52;;
76357;SDS011;65185;21.060;105.826;2023-05-14T08:33:43;19.80;;;14.02;;
76357;SDS011;65185;21.060;105.826;2023-05-14T08:36:10;19.77;;;14.00;;
76357;SDS011;65185;21.060;105.826;2023-05-14T08:38:36;22.10;;;15.75;;
76357;SDS011;65185;21.060;105.826;2023-05-14T08:41:04;23.33;;;15.88;;
76357;SDS011;65185;21.060;105.826;2023-05-14T08:46:11;20.52;;;15.23;;
76357;SDS011;65185;21.060;105.826;2023-05-14T08:48:40;19.27;;;14.40;;
76357;SDS011;65185;21.060;105.826;2023-05-14T08:51:08;21.50;;;15.68;;
76357;SDS011;65185;21.060;105.826;2023-05-14T08:53:34;21.98;;;16.45;;
76357;SDS011;65185;21.060;105.826;2023-05-14T08:56:02;17.77;;;13.93;;
76357;SDS011;65185;21.060;105.826;2023-05-14T08:58:30;18.48;;;13.90;;
76357;SDS011;65185;21.060;105.826;2023-05-14T09:00:57;17.88;;;12.80;;
76357;SDS011;65185;21.060;105.826;2023-05-14T09:03:24;18.50;;;13.52;;
76357;SDS011;65185;21.060;105.826;2023-05-14T09:05:50;23.05;;;15.00;;
76357;SDS011;65185;21.060;105.826;2023-05-14T09:08:18;20.13;;;14.55;;
76357;SDS011;65185;21.060;105.826;2023-05-14T09:10:45;21.33;;;14.70;;
76357;SDS011;65185;21.060;105.826;2023-05-14T09:13:11;17.20;;;13.40;;
76357;SDS011;65185;21.060;105.826;2023-05-14T09:15:37;19.45;;;14.35;;
76357;SDS011;65185;21.060;105.826;2023-05-14T09:18:05;21.38;;;14.10;;
76357;SDS011;65185;21.060;105.826;2023-05-14T09:20:32;21.90;;;15.68;;
76357;SDS011;65185;21.060;105.826;2023-05-14T09:22:59;22.80;;;16.13;;
76357;SDS011;65185;21.060;105.826;2023-05-14T09:25:26;20.08;;;15.38;;
76357;SDS011;65185;21.060;105.826;2023-05-14T09:27:56;20.42;;;15.20;;
76357;SDS011;65185;21.060;105.826;2023-05-14T09:30:23;22.05;;;16.55;;
76357;SDS011;65185;21.060;105.826;2023-05-14T09:32:52;23.50;;;16.63;;
76357;SDS011;65185;21.060;105.826;2023-05-14T09:35:23;19.00;;;14.07;;
76357;SDS011;65185;21.060;105.826;2023-05-14T09:37:50;21.60;;;14.82;;
76357;SDS011;65185;21.060;105.826;2023-05-14T09:40:19;19.70;;;15.63;;
76357;SDS011;65185;21.060;105.826;2023-05-14T09:42:47;21.10;;;15.20;;
76357;SDS011;65185;21.060;105.826;2023-05-14T09:45:13;19.13;;;14.25;;
76357;SDS011;65185;21.060;105.826;2023-05-14T09:47:41;21.00;;;14.55;;
76357;SDS011;65185;21.060;105.826;2023-05-14T09:50:09;19.73;;;14.43;;
76357;SDS011;65185;21.060;105.826;2023-05-14T09:52:35;22.55;;;15.55;;
76357;SDS011;65185;21.060;105.826;2023-05-14T09:55:02;30.52;;;18.08;;
76357;SDS011;65185;21.060;105.826;2023-05-14T09:57:29;37.03;;;18.52;;
76357;SDS011;65185;21.060;105.826;2023-05-14T09:59:56;35.83;;;19.40;;
76357;SDS011;65185;21.060;105.826;2023-05-14T10:02:23;25.63;;;16.60;;
76357;SDS011;65185;21.060;105.826;2023-05-14T10:04:52;23.38;;;15.70;;
76357;SDS011;65185;21.060;105.826;2023-05-14T10:07:23;28.85;;;17.00;;
76357;SDS011;65185;21.060;105.826;2023-05-14T10:09:56;26.85;;;17.10;;
76357;SDS011;65185;21.060;105.826;2023-05-14T10:12:27;24.55;;;16.85;;
76357;SDS011;65185;21.060;105.826;2023-05-14T10:15:02;24.15;;;14.82;;
76357;SDS011;65185;21.060;105.826;2023-05-14T10:17:34;27.38;;;17.42;;
76357;SDS011;65185;21.060;105.826;2023-05-14T10:20:04;25.20;;;17.17;;
76357;SDS011;65185;21.060;105.826;2023-05-14T10:25:00;26.23;;;17.27;;
76357;SDS011;65185;21.060;105.826;2023-05-14T10:27:28;23.08;;;15.30;;
76357;SDS011;65185;21.060;105.826;2023-05-14T10:29:54;39.67;;;20.48;;
76357;SDS011;65185;21.060;105.826;2023-05-14T10:32:22;64.65;;;27.40;;
76357;SDS011;65185;21.060;105.826;2023-05-14T10:34:50;60.00;;;26.40;;
76357;SDS011;65185;21.060;105.826;2023-05-14T10:37:20;52.58;;;25.17;;
76357;SDS011;65185;21.060;105.826;2023-05-14T10:39:47;82.05;;;30.88;;
76357;SDS011;65185;21.060;105.826;2023-05-14T10:42:22;56.13;;;24.77;;
76357;SDS011;65185;21.060;105.826;2023-05-14T10:45:01;59.25;;;25.67;;
76357;SDS011;65185;21.060;105.826;2023-05-14T10:47:47;48.70;;;22.85;;
76357;SDS011;65185;21.060;105.826;2023-05-14T10:50:14;42.53;;;21.83;;
76357;SDS011;65185;21.060;105.826;2023-05-14T10:52:44;36.00;;;20.35;;
76357;SDS011;65185;21.060;105.826;2023-05-14T10:55:12;31.23;;;20.02;;
76357;SDS011;65185;21.060;105.826;2023-05-14T10:57:41;22.98;;;16.42;;
76357;SDS011;65185;21.060;105.826;2023-05-14T11:00:09;21.60;;;15.57;;
76357;SDS011;65185;21.060;105.826;2023-05-14T11:02:38;22.83;;;16.23;;
76357;SDS011;65185;21.060;105.826;2023-05-14T11:05:09;20.55;;;15.57;;
76357;SDS011;65185;21.060;105.826;2023-05-14T11:07:43;22.27;;;15.90;;
76357;SDS011;65185;21.060;105.826;2023-05-14T11:10:13;24.60;;;17.50;;
76357;SDS011;65185;21.060;105.826;2023-05-14T11:12:43;23.90;;;16.65;;
76357;SDS011;65185;21.060;105.826;2023-05-14T11:15:11;21.90;;;16.92;;
76357;SDS011;65185;21.060;105.826;2023-05-14T11:17:43;23.90;;;17.10;;
76357;SDS011;65185;21.060;105.826;2023-05-14T11:20:11;20.42;;;16.33;;
76357;SDS011;65185;21.060;105.826;2023-05-14T11:22:39;20.95;;;16.80;;
76357;SDS011;65185;21.060;105.826;2023-05-14T11:25:07;23.17;;;16.17;;
76357;SDS011;65185;21.060;105.826;2023-05-14T11:27:35;21.20;;;16.98;;
76357;SDS011;65185;21.060;105.826;2023-05-14T11:30:03;23.08;;;17.15;;
76357;SDS011;65185;21.060;105.826;2023-05-14T11:32:31;23.45;;;17.40;;
76357;SDS011;65185;21.060;105.826;2023-05-14T11:34:58;22.98;;;18.55;;
76357;SDS011;65185;21.060;105.826;2023-05-14T11:37:24;23.73;;;18.35;;
76357;SDS011;65185;21.060;105.826;2023-05-14T11:39:54;25.08;;;19.17;;
76357;SDS011;65185;21.060;105.826;2023-05-14T11:42:23;27.42;;;18.85;;
76357;SDS011;65185;21.060;105.826;2023-05-14T11:44:50;26.25;;;19.35;;
76357;SDS011;65185;21.060;105.826;2023-05-14T11:47:21;24.73;;;19.83;;
76357;SDS011;65185;21.060;105.826;2023-05-14T11:49:48;23.00;;;18.25;;
76357;SDS011;65185;21.060;105.826;2023-05-14T11:52:15;24.55;;;18.67;;
76357;SDS011;65185;21.060;105.826;2023-05-14T11:54:44;22.42;;;17.35;;
76357;SDS011;65185;21.060;105.826;2023-05-14T11:57:11;23.02;;;17.65;;
76357;SDS011;65185;21.060;105.826;2023-05-14T11:59:42;24.63;;;18.75;;
76357;SDS011;65185;21.060;105.826;2023-05-14T12:02:10;24.17;;;17.60;;
76357;SDS011;65185;21.060;105.826;2023-05-14T12:04:38;25.73;;;18.15;;
76357;SDS011;65185;21.060;105.826;2023-05-14T12:07:09;24.55;;;17.38;;
76357;SDS011;65185;21.060;105.826;2023-05-14T12:09:41;24.88;;;17.38;;
76357;SDS011;65185;21.060;105.826;2023-05-14T12:12:13;26.83;;;18.58;;
76357;SDS011;65185;21.060;105.826;2023-05-14T12:14:44;27.42;;;19.58;;
76357;SDS011;65185;21.060;105.826;2023-05-14T12:17:13;30.10;;;21.50;;
76357;SDS011;65185;21.060;105.826;2023-05-14T12:19:47;27.25;;;18.88;;
76357;SDS011;65185;21.060;105.826;2023-05-14T12:24:51;25.08;;;18.58;;
76357;SDS011;65185;21.060;105.826;2023-05-14T12:27:22;27.13;;;19.23;;
76357;SDS011;65185;21.060;105.826;2023-05-14T12:29:59;27.27;;;20.13;;
76357;SDS011;65185;21.060;105.826;2023-05-14T12:32:30;27.80;;;21.15;;
76357;SDS011;65185;21.060;105.826;2023-05-14T12:34:56;30.05;;;20.73;;
76357;SDS011;65185;21.060;105.826;2023-05-14T12:37:23;29.13;;;21.08;;
76357;SDS011;65185;21.060;105.826;2023-05-14T12:39:50;32.95;;;21.88;;
76357;SDS011;65185;21.060;105.826;2023-05-14T12:42:17;32.53;;;23.33;;
76357;SDS011;65185;21.060;105.826;2023-05-14T12:44:43;32.92;;;23.90;;
76357;SDS011;65185;21.060;105.826;2023-05-14T12:47:10;35.60;;;24.70;;
76357;SDS011;65185;21.060;105.826;2023-05-14T12:49:36;33.88;;;24.75;;
76357;SDS011;65185;21.060;105.826;2023-05-14T12:52:03;33.50;;;24.73;;
76357;SDS011;65185;21.060;105.826;2023-05-14T12:54:30;34.60;;;24.58;;
76357;SDS011;65185;21.060;105.826;2023-05-14T12:56:57;34.10;;;24.65;;
76357;SDS011;65185;21.060;105.826;2023-05-14T12:59:24;34.92;;;23.50;;
76357;SDS011;65185;21.060;105.826;2023-05-14T13:01:50;37.90;;;24.63;;
76357;SDS011;65185;21.060;105.826;2023-05-14T13:04:17;35.08;;;23.13;;
76357;SDS011;65185;21.060;105.826;2023-05-14T13:06:43;33.28;;;22.98;;
76357;SDS011;65185;21.060;105.826;2023-05-14T13:09:09;32.25;;;22.92;;
76357;SDS011;65185;21.060;105.826;2023-05-14T13:11:36;32.65;;;23.52;;
76357;SDS011;65185;21.060;105.826;2023-05-14T13:14:02;34.67;;;22.48;;
76357;SDS011;65185;21.060;105.826;2023-05-14T13:16:29;32.38;;;23.40;;
76357;SDS011;65185;21.060;105.826;2023-05-14T13:18:55;32.65;;;22.50;;
76357;SDS011;65185;21.060;105.826;2023-05-14T13:21:22;34.42;;;22.55;;
76357;SDS011;65185;21.060;105.826;2023-05-14T13:23:48;34.42;;;23.42;;
76357;SDS011;65185;21.060;105.826;2023-05-14T13:26:15;32.42;;;22.55;;
76357;SDS011;65185;21.060;105.826;2023-05-14T13:28:41;31.40;;;21.67;;
76357;SDS011;65185;21.060;105.826;2023-05-14T13:31:10;31.25;;;22.60;;
76357;SDS011;65185;21.060;105.826;2023-05-14T13:33:39;33.60;;;23.20;;
76357;SDS011;65185;21.060;105.826;2023-05-14T13:36:07;29.63;;;21.00;;
76357;SDS011;65185;21.060;105.826;2023-05-14T13:38:34;30.98;;;22.40;;
76357;SDS011;65185;21.060;105.826;2023-05-14T13:41:01;32.13;;;22.55;;
76357;SDS011;65185;21.060;105.826;2023-05-14T13:43:28;35.22;;;22.33;;
76357;SDS011;65185;21.060;105.826;2023-05-14T13:45:59;32.72;;;22.27;;
76357;SDS011;65185;21.060;105.826;2023-05-14T13:48:27;32.58;;;21.38;;
76357;SDS011;65185;21.060;105.826;2023-05-14T13:50:55;31.10;;;22.23;;
76357;SDS011;65185;21.060;105.826;2023-05-14T13:53:22;30.83;;;21.73;;
76357;SDS011;65185;21.060;105.826;2023-05-14T13:55:49;31.23;;;20.67;;
76357;SDS011;65185;21.060;105.826;2023-05-14T13:58:25;35.40;;;22.63;;
76357;SDS011;65185;21.060;105.826;2023-05-14T14:00:53;31.95;;;22.42;;
76357;SDS011;65185;21.060;105.826;2023-05-14T14:03:19;37.60;;;22.88;;
76357;SDS011;65185;21.060;105.826;2023-05-14T14:05:46;32.55;;;21.75;;
76357;SDS011;65185;21.060;105.826;2023-05-14T14:08:12;31.35;;;22.20;;
76357;SDS011;65185;21.060;105.826;2023-05-14T14:10:39;30.60;;;21.75;;
76357;SDS011;65185;21.060;105.826;2023-05-14T14:13:07;35.47;;;23.42;;
76357;SDS011;65185;21.060;105.826;2023-05-14T14:15:34;33.03;;;22.95;;